Time;durP1;ratioP1;P1;durP2;ratioP2;P2;SDS_P1;SDS_P2;PMS_P1;PMS_P2;Temp;Humidity;BMP_temperature;BMP_pressure;BME280_temperature;BME280_humidity;BME280_pressure;Samples;Min_cycle;Max_cycle;Signal;HPM_P1;HPM_P2
2021/03/29 00:00:47;;;;;;;;;;;;;;;15.33;40.13;102285.91;4931565;28;97873;-84
2021/03/29 00:03:13;;;;;;;;;;;;;;;15.45;39.87;102285.50;4936512;28;96811;-83
2021/03/29 00:05:40;;;;;;;;;;;;;;;15.47;39.92;102286.34;4933708;28;96706;-84
2021/03/29 00:08:07;;;;;;;;;;;;;;;15.55;39.67;102294.13;4929275;28;97745;-84
2021/03/29 00:10:35;;;;;;;;;;;;;;;15.31;40.11;102286.84;4937133;28;99968;-84
2021/03/29 00:13:02;;;;;;;;;;;;;;;15.60;39.72;102288.66;4946799;28;97194;-84
2021/03/29 00:15:30;;;;;;;;;;;;;;;15.59;39.57;102281.56;4936715;28;96885;-83
2021/03/29 00:17:56;;;;;;;;;;;;;;;15.61;39.50;102280.63;4932697;28;98992;-83
2021/03/29 00:20:23;;;;;;;;;;;;;;;15.58;39.76;102285.16;4932411;28;98873;-81
2021/03/29 00:22:49;;;;;;;;;;;;;;;15.64;39.64;102276.97;4923664;28;96942;-84
2021/03/29 00:25:16;;;;;;;;;;;;;;;14.87;40.92;102277.53;4923743;28;96938;-83
2021/03/29 00:27:43;;;;;;;;;;;;;;;15.23;40.61;102273.75;4933974;28;98257;-84
2021/03/29 00:30:12;;;;;;;;;;;;;;;15.19;40.55;102274.78;4933996;28;99020;-83
2021/03/29 00:32:38;;;;;;;;;;;;;;;15.51;39.99;102279.97;4924427;28;96677;-83
2021/03/29 00:35:05;;;;;;;;;;;;;;;15.54;39.86;102282.59;4925349;28;99866;-82
2021/03/29 00:37:31;;;;;;;;;;;;;;;15.44;40.22;102272.22;4931685;28;99018;-83
2021/03/29 00:39:57;;;;;;;;;;;;;;;15.33;40.26;102274.38;4934255;28;99559;-83
2021/03/29 00:42:23;;;;;;;;;;;;;;;15.08;40.69;102283.13;4940140;28;97072;-82
2021/03/29 00:44:50;;;;;;;;;;;;;;;15.28;40.45;102285.16;4944037;28;97134;-82
2021/03/29 00:47:16;;;;;;;;;;;;;;;15.31;40.26;102282.41;4930744;28;98989;-82
2021/03/29 00:49:42;;;;;;;;;;;;;;;15.38;40.29;102283.94;4933842;28;99818;-83
2021/03/29 00:52:08;;;;;;;;;;;;;;;15.35;40.40;102286.72;4924909;28;96687;-84
2021/03/29 00:54:34;;;;;;;;;;;;;;;15.06;40.85;102294.72;4951470;28;98125;-83
2021/03/29 00:57:01;;;;;;;;;;;;;;;15.05;41.01;102295.63;4941129;28;99030;-83
2021/03/29 00:59:28;;;;;;;;;;;;;;;15.31;40.65;102284.19;4938879;28;99782;-84
2021/03/29 01:01:55;;;;;;;;;;;;;;;15.77;39.63;102283.63;4936558;28;96900;-82
2021/03/29 01:04:21;;;;;;;;;;;;;;;15.42;40.11;102295.41;4929629;28;96837;-83
2021/03/29 01:06:48;;;;;;;;;;;;;;;15.67;39.76;102287.53;4929809;28;99457;-82
2021/03/29 01:09:17;;;;;;;;;;;;;;;15.52;39.94;102289.75;4930234;28;98335;-83
2021/03/29 01:11:45;;;;;;;;;;;;;;;15.22;40.65;102290.69;4928858;28;96951;-83
2021/03/29 01:14:14;;;;;;;;;;;;;;;15.68;40.06;102283.94;4934519;28;96825;-84
2021/03/29 01:16:41;;;;;;;;;;;;;;;15.62;39.66;102285.00;4934428;28;99075;-83
2021/03/29 01:19:11;;;;;;;;;;;;;;;15.76;39.57;102282.75;4921094;28;97824;-84
2021/03/29 01:21:40;;;;;;;;;;;;;;;15.60;39.80;102285.97;4944812;28;97148;-81
2021/03/29 01:24:11;;;;;;;;;;;;;;;15.56;40.04;102281.69;4940349;28;97090;-83
2021/03/29 01:26:40;;;;;;;;;;;;;;;15.43;40.41;102275.81;4942097;28;99440;-84
2021/03/29 01:29:07;;;;;;;;;;;;;;;15.71;39.65;102276.72;4939116;28;98663;-82
2021/03/29 01:31:33;;;;;;;;;;;;;;;15.37;40.31;102274.22;4928431;28;96908;-85
2021/03/29 01:33:59;;;;;;;;;;;;;;;15.35;40.69;102270.75;4923720;28;96899;-84
2021/03/29 01:36:25;;;;;;;;;;;;;;;15.27;40.76;102264.78;4922020;28;99082;-83
2021/03/29 01:38:52;;;;;;;;;;;;;;;14.94;41.65;102265.78;4934225;28;98917;-83
2021/03/29 01:41:20;;;;;;;;;;;;;;;15.21;41.10;102270.31;4936999;28;96814;-85
2021/03/29 01:43:47;;;;;;;;;;;;;;;15.27;40.93;102270.09;4921390;28;96850;-83
2021/03/29 01:46:13;;;;;;;;;;;;;;;15.69;39.96;102261.69;4934171;28;99040;-85
2021/03/29 01:48:39;;;;;;;;;;;;;;;15.85;39.55;102273.59;4930774;28;97598;-83
2021/03/29 01:51:05;;;;;;;;;;;;;;;15.79;39.80;102272.00;4930538;28;97347;-83
2021/03/29 01:53:32;;;;;;;;;;;;;;;15.53;40.21;102277.31;4935495;28;97571;-84
2021/03/29 01:55:58;;;;;;;;;;;;;;;15.65;40.32;102270.72;4926674;28;100470;-84
2021/03/29 01:58:24;;;;;;;;;;;;;;;15.98;39.55;102277.59;4937646;28;100550;-84
2021/03/29 02:00:53;;;;;;;;;;;;;;;15.71;40.16;102271.38;4926555;28;97897;-84
2021/03/29 02:03:19;;;;;;;;;;;;;;;15.57;40.26;102273.63;4921480;28;96918;-84
2021/03/29 02:05:45;;;;;;;;;;;;;;;15.62;40.28;102278.81;4920398;28;98926;-84
2021/03/29 02:08:12;;;;;;;;;;;;;;;15.78;40.00;102272.06;4923868;28;100565;-83
2021/03/29 02:10:40;;;;;;;;;;;;;;;15.83;39.79;102272.75;4926428;28;96863;-84
2021/03/29 02:13:07;;;;;;;;;;;;;;;15.74;40.11;102262.44;4920197;28;97442;-84
2021/03/29 02:15:33;;;;;;;;;;;;;;;15.67;40.24;102258.22;4930094;28;97001;-84
2021/03/29 02:18:01;;;;;;;;;;;;;;;15.51;40.55;102257.78;4922666;28;99532;-84
2021/03/29 02:20:29;;;;;;;;;;;;;;;15.48;40.79;102264.13;4924363;28;96866;-83
2021/03/29 02:22:56;;;;;;;;;;;;;;;15.53;40.55;102256.88;4924053;28;98709;-83
2021/03/29 02:25:23;;;;;;;;;;;;;;;15.40;40.74;102259.94;4923524;28;98995;-84
2021/03/29 02:27:49;;;;;;;;;;;;;;;15.54;40.68;102255.97;4926153;28;99032;-83
2021/03/29 02:30:17;;;;;;;;;;;;;;;15.55;40.59;102259.50;4926865;28;96749;-84
2021/03/29 02:32:44;;;;;;;;;;;;;;;15.18;41.43;102249.06;4927110;28;97026;-84
2021/03/29 02:35:12;;;;;;;;;;;;;;;15.28;41.24;102255.00;4924637;28;99254;-84
2021/03/29 02:37:38;;;;;;;;;;;;;;;15.32;41.35;102252.19;4922044;28;97251;-84
2021/03/29 02:40:06;;;;;;;;;;;;;;;15.57;40.74;102254.09;4929894;28;97048;-83
2021/03/29 02:42:32;;;;;;;;;;;;;;;15.09;41.53;102244.06;4929506;28;97054;-85
2021/03/29 02:44:58;;;;;;;;;;;;;;;14.92;42.05;102252.53;4933949;28;99019;-83
2021/03/29 02:47:24;;;;;;;;;;;;;;;15.26;41.60;102251.50;4919592;28;98895;-83
2021/03/29 02:49:50;;;;;;;;;;;;;;;15.31;41.51;102253.09;4931602;28;97052;-84
2021/03/29 02:52:17;;;;;;;;;;;;;;;15.37;41.05;102254.69;4934227;28;97075;-83
2021/03/29 02:54:45;;;;;;;;;;;;;;;15.28;41.52;102261.19;4921669;28;99000;-82
2021/03/29 02:57:12;;;;;;;;;;;;;;;15.32;41.12;102260.19;4927238;28;99319;-83
2021/03/29 02:59:38;;;;;;;;;;;;;;;15.63;40.83;102257.44;4935351;28;96947;-83
2021/03/29 03:02:07;;;;;;;;;;;;;;;15.61;40.70;102255.75;4922403;28;96987;-83
2021/03/29 03:04:33;;;;;;;;;;;;;;;15.05;41.96;102261.00;4927187;28;99146;-83
2021/03/29 03:07:00;;;;;;;;;;;;;;;15.28;41.47;102263.88;4932318;28;97875;-82
2021/03/29 03:09:27;;;;;;;;;;;;;;;15.39;41.21;102259.06;4918771;28;97048;-82
2021/03/29 03:11:53;;;;;;;;;;;;;;;15.57;41.27;102270.06;4915953;28;96980;-82
2021/03/29 03:14:19;;;;;;;;;;;;;;;15.63;41.12;102262.75;4920394;28;98836;-82
2021/03/29 03:16:45;;;;;;;;;;;;;;;15.50;40.97;102272.91;4929729;28;99137;-83
2021/03/29 03:19:11;;;;;;;;;;;;;;;15.45;40.92;102269.53;4933109;28;97020;-82
2021/03/29 03:21:37;;;;;;;;;;;;;;;15.71;40.88;102267.84;4934283;28;96729;-83
2021/03/29 03:24:04;;;;;;;;;;;;;;;15.59;40.65;102265.59;4922163;28;99501;-83
2021/03/29 03:26:31;;;;;;;;;;;;;;;15.41;40.99;102272.34;4919164;28;101069;-83
2021/03/29 03:28:57;;;;;;;;;;;;;;;15.24;41.53;102269.31;4923294;28;97695;-82
2021/03/29 03:31:24;;;;;;;;;;;;;;;15.55;41.02;102259.50;4930242;28;97156;-83
2021/03/29 03:33:51;;;;;;;;;;;;;;;15.44;40.96;102264.25;4940006;28;97779;-83
2021/03/29 03:36:18;;;;;;;;;;;;;;;15.41;41.17;102270.56;4930571;28;100979;-83
2021/03/29 03:38:45;;;;;;;;;;;;;;;15.64;40.79;102271.63;4936416;28;96640;-83
2021/03/29 03:41:12;;;;;;;;;;;;;;;15.37;41.17;102268.00;4928162;28;98707;-84
2021/03/29 03:43:43;;;;;;;;;;;;;;;15.23;41.44;102268.44;4919831;28;98523;-84
2021/03/29 03:46:11;;;;;;;;;;;;;;;15.37;41.28;102268.00;4921086;28;97637;-83
2021/03/29 03:48:37;;;;;;;;;;;;;;;15.39;41.07;102267.06;4927605;28;97112;-84
2021/03/29 03:51:03;;;;;;;;;;;;;;;15.18;41.54;102270.38;4926888;28;97146;-83
2021/03/29 03:53:29;;;;;;;;;;;;;;;15.28;41.28;102271.84;4930841;28;98730;-84
2021/03/29 03:55:56;;;;;;;;;;;;;;;15.47;40.90;102265.03;4933590;28;99228;-83
2021/03/29 03:58:22;;;;;;;;;;;;;;;15.37;41.26;102262.69;4929639;28;97172;-85
2021/03/29 04:00:49;;;;;;;;;;;;;;;15.52;40.80;102276.44;4937308;28;96839;-83
2021/03/29 04:03:15;;;;;;;;;;;;;;;15.44;40.86;102267.78;4923574;28;97829;-83
2021/03/29 04:05:41;;;;;;;;;;;;;;;15.39;41.01;102267.06;4927726;28;97688;-84
2021/03/29 04:08:08;;;;;;;;;;;;;;;15.21;41.54;102272.09;4931792;28;97447;-82
2021/03/29 04:10:42;;;;;;;;;;;;;;;14.95;41.86;102262.22;4932151;28;98408;-83
2021/03/29 04:13:11;;;;;;;;;;;;;;;15.09;41.53;102273.34;4930168;28;98286;-83
2021/03/29 04:15:37;;;;;;;;;;;;;;;15.07;41.85;102273.38;4935429;28;99250;-83
2021/03/29 04:18:04;;;;;;;;;;;;;;;14.86;42.34;102273.13;4931658;28;96665;-83
2021/03/29 04:20:30;;;;;;;;;;;;;;;14.94;42.15;102266.66;4921569;28;96946;-83
2021/03/29 04:22:56;;;;;;;;;;;;;;;14.96;42.16;102263.97;4920966;28;98905;-83
2021/03/29 04:25:22;;;;;;;;;;;;;;;15.16;41.53;102261.59;4926842;28;98842;-84
2021/03/29 04:27:48;;;;;;;;;;;;;;;15.04;42.04;102267.25;4934737;28;97730;-84
2021/03/29 04:30:14;;;;;;;;;;;;;;;15.01;41.96;102262.03;4921819;28;98595;-83
2021/03/29 04:32:40;;;;;;;;;;;;;;;14.92;42.11;102268.50;4937473;28;99007;-84
2021/03/29 04:35:08;;;;;;;;;;;;;;;15.15;41.68;102267.81;4925833;28;99227;-84
2021/03/29 04:37:34;;;;;;;;;;;;;;;15.12;41.70;102260.78;4933023;28;96705;-84
2021/03/29 04:40:00;;;;;;;;;;;;;;;15.29;41.51;102268.28;4925121;28;98325;-83
2021/03/29 04:42:26;;;;;;;;;;;;;;;15.15;41.78;102262.50;4920695;28;97729;-83
2021/03/29 04:44:52;;;;;;;;;;;;;;;15.16;41.69;102262.44;4932875;28;99487;-83
2021/03/29 04:47:18;;;;;;;;;;;;;;;14.90;41.74;102259.69;4932802;28;96905;-84
2021/03/29 04:49:43;;;;;;;;;;;;;;;14.76;42.25;102261.91;4934397;28;96802;-83
2021/03/29 04:52:10;;;;;;;;;;;;;;;14.55;42.60;102268.69;4928499;28;99190;-84
2021/03/29 04:54:36;;;;;;;;;;;;;;;14.80;42.25;102262.66;4933506;28;98833;-83
2021/03/29 04:57:02;;;;;;;;;;;;;;;14.64;42.35;102267.53;4935447;28;96982;-84
2021/03/29 04:59:28;;;;;;;;;;;;;;;14.77;42.26;102271.59;4926710;28;97505;-86
2021/03/29 05:01:54;;;;;;;;;;;;;;;14.77;42.08;102268.94;4940455;28;97975;-86
2021/03/29 05:04:20;;;;;;;;;;;;;;;14.89;41.88;102273.06;4941604;28;97827;-83
2021/03/29 05:06:46;;;;;;;;;;;;;;;14.91;41.62;102273.84;4929888;28;96997;-83
2021/03/29 05:09:13;;;;;;;;;;;;;;;14.82;41.43;102274.16;4930727;28;97143;-83
2021/03/29 05:11:47;;;;;;;;;;;;;;;15.18;41.14;102280.16;4918839;28;99501;-83
2021/03/29 05:14:13;;;;;;;;;;;;;;;14.97;41.47;102281.66;4932339;28;98879;-83
2021/03/29 05:16:38;;;;;;;;;;;;;;;14.92;41.51;102280.94;4931394;28;98109;-85
2021/03/29 05:19:04;;;;;;;;;;;;;;;15.09;41.34;102273.34;4941159;28;96983;-86
2021/03/29 05:21:30;;;;;;;;;;;;;;;14.99;41.42;102283.38;4939770;28;100546;-85
2021/03/29 05:23:57;;;;;;;;;;;;;;;14.99;41.39;102286.03;4941485;28;97781;-82
2021/03/29 05:26:24;;;;;;;;;;;;;;;15.16;40.88;102283.72;4921533;28;97063;-85
2021/03/29 05:28:49;;;;;;;;;;;;;;;15.27;40.97;102283.41;4929157;28;96871;-84
2021/03/29 05:31:15;;;;;;;;;;;;;;;14.98;41.39;102278.09;4932990;28;97769;-84
2021/03/29 05:33:41;;;;;;;;;;;;;;;15.33;40.47;102291.22;4934067;28;97972;-84
2021/03/29 05:36:12;;;;;;;;;;;;;;;15.31;40.61;102292.19;4922233;28;96746;-84
2021/03/29 05:38:38;;;;;;;;;;;;;;;15.21;40.58;102291.59;4931575;28;96830;-85
2021/03/29 05:41:04;;;;;;;;;;;;;;;15.48;40.14;102293.41;4933077;28;99197;-84
2021/03/29 05:43:30;;;;;;;;;;;;;;;15.36;40.54;102290.28;4948325;28;97596;-85
2021/03/29 05:45:57;;;;;;;;;;;;;;;15.55;40.30;102302.13;4934376;28;96998;-83
2021/03/29 05:48:23;;;;;;;;;;;;;;;15.29;40.49;102302.91;4952470;28;96930;-83
2021/03/29 05:50:48;;;;;;;;;;;;;;;15.71;40.01;102311.34;4944944;28;100004;-84
2021/03/29 05:53:14;;;;;;;;;;;;;;;15.54;40.31;102303.91;4945846;28;97677;-83
2021/03/29 05:55:42;;;;;;;;;;;;;;;15.60;40.01;102304.63;4943070;28;96134;-86
2021/03/29 05:58:31;;;;;;;;;;;;;;;15.45;40.42;102309.47;4937848;28;97578;-83
2021/03/29 06:00:58;;;;;;;;;;;;;;;15.33;40.66;102309.00;4947935;28;98326;-85
2021/03/29 06:03:26;;;;;;;;;;;;;;;15.20;41.27;102312.94;4946943;28;97787;-85
2021/03/29 06:05:53;;;;;;;;;;;;;;;15.58;40.56;102315.34;4947853;28;96488;-85
2021/03/29 06:08:19;;;;;;;;;;;;;;;15.61;40.74;102322.38;4940313;28;96795;-86
2021/03/29 06:10:49;;;;;;;;;;;;;;;15.67;40.62;102317.72;4932686;28;97840;-86
2021/03/29 06:13:16;;;;;;;;;;;;;;;15.73;40.53;102324.63;4922802;28;97551;-85
2021/03/29 06:15:42;;;;;;;;;;;;;;;15.59;40.42;102313.53;4931090;28;96722;-84
2021/03/29 06:18:13;;;;;;;;;;;;;;;15.62;40.61;102313.47;4925301;28;96682;-85
2021/03/29 06:21:01;;;;;;;;;;;;;;;15.62;40.23;102311.63;4941381;28;97829;-85
2021/03/29 06:23:27;;;;;;;;;;;;;;;15.54;40.58;102311.91;4933795;28;96994;-84
2021/03/29 06:26:15;;;;;;;;;;;;;;;15.93;39.91;102319.53;4938350;28;96761;-85
2021/03/29 06:28:41;;;;;;;;;;;;;;;15.43;40.16;102327.28;4932018;28;97848;-84
2021/03/29 06:31:17;;;;;;;;;;;;;;;15.53;40.34;102326.13;4931399;28;98934;-84
2021/03/29 06:33:46;;;;;;;;;;;;;;;15.55;39.95;102328.75;4934045;28;97786;-85
2021/03/29 06:36:25;;;;;;;;;;;;;;;15.80;39.92;102328.84;4930981;28;97117;-85
2021/03/29 06:38:52;;;;;;;;;;;;;;;16.09;39.26;102317.22;4925298;28;96766;-85
2021/03/29 06:41:23;;;;;;;;;;;;;;;16.23;38.95;102323.84;4937584;28;98902;-83
2021/03/29 06:43:50;;;;;;;;;;;;;;;16.32;38.77;102328.88;4926597;28;97596;-88
2021/03/29 06:46:19;;;;;;;;;;;;;;;16.40;38.28;102309.94;4935167;28;96650;-82
2021/03/29 06:48:46;;;;;;;;;;;;;;;16.42;38.29;102316.06;4936317;28;97960;-84
2021/03/29 06:51:15;;;;;;;;;;;;;;;16.46;38.30;102315.06;4942887;28;99369;-84
2021/03/29 06:53:42;;;;;;;;;;;;;;;16.66;37.95;102314.38;4936833;28;99197;-85
2021/03/29 06:56:25;;;;;;;;;;;;;;;15.86;38.93;102313.53;4936992;28;96926;-84
2021/03/29 06:58:52;;;;;;;;;;;;;;;16.20;38.72;102323.06;4954841;28;96880;-83
2021/03/29 07:01:18;;;;;;;;;;;;;;;16.36;38.56;102316.28;4944214;28;98067;-83
2021/03/29 07:03:46;;;;;;;;;;;;;;;16.13;38.72;102309.09;4937657;28;97878;-82
2021/03/29 07:06:14;;;;;;;;;;;;;;;16.46;37.93;102314.19;4945479;28;96931;-84
2021/03/29 07:08:41;;;;;;;;;;;;;;;16.47;38.08;102305.25;4939347;28;98430;-81
2021/03/29 07:11:07;;;;;;;;;;;;;;;16.81;37.69;102307.59;4928415;28;99316;-82
2021/03/29 07:13:34;;;;;;;;;;;;;;;16.06;38.71;102312.88;4928450;28;99281;-80
2021/03/29 07:16:01;;;;;;;;;;;;;;;16.41;38.50;102300.97;4938859;28;97198;-81
2021/03/29 07:18:27;;;;;;;;;;;;;;;16.46;38.25;102308.84;4935350;28;98122;-81
2021/03/29 07:20:55;;;;;;;;;;;;;;;16.64;37.73;102309.09;4924363;28;99260;-82
2021/03/29 07:23:21;;;;;;;;;;;;;;;16.60;37.70;102315.47;4930087;28;98853;-82
2021/03/29 07:25:47;;;;;;;;;;;;;;;16.45;38.33;102315.97;4930777;28;96906;-81
2021/03/29 07:28:15;;;;;;;;;;;;;;;16.79;37.77;102317.47;4946843;28;97225;-81
2021/03/29 07:30:45;;;;;;;;;;;;;;;16.81;38.00;102313.78;4926974;28;100529;-82
2021/03/29 07:33:14;;;;;;;;;;;;;;;17.01;37.57;102319.28;4933860;28;98982;-82
2021/03/29 07:35:45;;;;;;;;;;;;;;;17.18;36.91;102320.44;4931691;28;96903;-82
2021/03/29 07:38:13;;;;;;;;;;;;;;;16.86;37.05;102317.19;4934748;28;97157;-84
2021/03/29 07:40:40;;;;;;;;;;;;;;;17.01;36.76;102318.41;4939040;28;97848;-85
2021/03/29 07:43:08;;;;;;;;;;;;;;;17.16;36.58;102311.63;4916238;28;97571;-81
2021/03/29 07:45:42;;;;;;;;;;;;;;;17.26;36.56;102313.88;4935262;28;97154;-81
2021/03/29 07:48:08;;;;;;;;;;;;;;;17.11;36.63;102330.50;4943086;28;97138;-81
2021/03/29 07:50:47;;;;;;;;;;;;;;;17.51;36.14;102325.38;4934876;28;99103;-81
2021/03/29 07:53:22;;;;;;;;;;;;;;;17.56;35.98;102326.97;4933685;28;98345;-81
2021/03/29 07:55:49;;;;;;;;;;;;;;;17.67;35.80;102332.78;4940133;28;96865;-83
2021/03/29 07:58:16;;;;;;;;;;;;;;;18.07;35.15;102324.00;4934454;28;97163;-81
2021/03/29 08:00:49;;;;;;;;;;;;;;;17.98;35.11;102330.63;4943950;28;98039;-83
2021/03/29 08:03:35;;;;;;;;;;;;;;;18.32;34.62;102327.38;4944570;28;100165;-81
2021/03/29 08:06:01;;;;;;;;;;;;;;;17.49;35.54;102343.25;4945825;28;97015;-81
2021/03/29 08:08:41;;;;;;;;;;;;;;;17.66;35.52;102339.06;4955310;28;95984;-83
2021/03/29 08:11:09;;;;;;;;;;;;;;;17.66;35.38;102337.25;4949710;28;100708;-82
2021/03/29 08:13:36;;;;;;;;;;;;;;;18.22;34.67;102328.72;4954939;28;96532;-82
2021/03/29 08:16:04;;;;;;;;;;;;;;;18.18;34.55;102332.47;4942510;28;97008;-82
2021/03/29 08:18:30;;;;;;;;;;;;;;;18.48;34.13;102335.63;4940358;28;96647;-81
2021/03/29 08:20:57;;;;;;;;;;;;;;;18.18;34.66;102330.63;4947121;28;98305;-81
2021/03/29 08:23:34;;;;;;;;;;;;;;;18.12;34.34;102336.25;4939249;28;99613;-83
2021/03/29 08:26:08;;;;;;;;;;;;;;;18.05;34.75;102342.78;4930346;28;96871;-83
2021/03/29 08:28:53;;;;;;;;;;;;;;;18.16;34.14;102335.22;4939076;28;96758;-82
2021/03/29 08:31:34;;;;;;;;;;;;;;;17.60;34.98;102341.94;4939901;28;99282;-83
2021/03/29 08:34:00;;;;;;;;;;;;;;;18.33;34.21;102339.81;4925130;28;98829;-81
2021/03/29 08:36:25;;;;;;;;;;;;;;;18.47;33.64;102341.91;4945556;28;96776;-81
2021/03/29 08:38:54;;;;;;;;;;;;;;;18.33;33.66;102345.19;4937005;28;98512;-84
2021/03/29 08:41:21;;;;;;;;;;;;;;;18.28;33.98;102340.03;4924384;28;98032;-81
2021/03/29 08:43:48;;;;;;;;;;;;;;;18.19;33.92;102339.53;4925760;28;98199;-86
2021/03/29 08:46:14;;;;;;;;;;;;;;;18.10;34.41;102340.81;4944546;28;96993;-83
2021/03/29 08:48:45;;;;;;;;;;;;;;;18.00;34.42;102347.47;4948017;28;96912;-83
2021/03/29 08:51:19;;;;;;;;;;;;;;;18.32;34.13;102348.78;4944579;28;97018;-85
2021/03/29 08:53:45;;;;;;;;;;;;;;;17.68;35.00;102347.91;4944021;28;97775;-82
2021/03/29 08:56:10;;;;;;;;;;;;;;;17.93;34.96;102351.31;4936919;28;96917;-81
2021/03/29 08:58:37;;;;;;;;;;;;;;;18.31;34.72;102352.44;4929968;28;97011;-82
2021/03/29 09:01:03;;;;;;;;;;;;;;;18.69;33.77;102340.97;4934830;28;99251;-81
2021/03/29 09:03:30;;;;;;;;;;;;;;;18.40;33.96;102348.47;4929452;28;98136;-83
2021/03/29 09:05:55;;;;;;;;;;;;;;;17.90;34.83;102332.75;4941310;28;97688;-83
2021/03/29 09:08:25;;;;;;;;;;;;;;;18.29;34.71;102357.84;4934404;28;97009;-82
2021/03/29 09:10:51;;;;;;;;;;;;;;;18.40;34.30;102354.69;4936969;28;97945;-83
2021/03/29 09:13:21;;;;;;;;;;;;;;;18.23;34.70;102347.41;4938235;28;99111;-82
2021/03/29 09:15:49;;;;;;;;;;;;;;;18.74;34.13;102358.63;4924949;28;96756;-82
2021/03/29 09:18:16;;;;;;;;;;;;;;;19.05;33.11;102351.81;4943816;28;96814;-84
2021/03/29 09:20:43;;;;;;;;;;;;;;;19.59;32.81;102349.34;4944421;28;98981;-85
2021/03/29 09:23:13;;;;;;;;;;;;;;;18.97;33.11;102350.44;4937634;28;98927;-84
2021/03/29 09:25:40;;;;;;;;;;;;;;;18.96;33.09;102356.72;4944738;28;96915;-83
2021/03/29 09:28:12;;;;;;;;;;;;;;;19.21;32.79;102357.34;4949160;28;96786;-84
2021/03/29 09:30:38;;;;;;;;;;;;;;;19.25;32.71;102345.53;4942761;28;98233;-82
2021/03/29 09:33:05;;;;;;;;;;;;;;;19.69;31.94;102345.28;4935002;28;96875;-83
2021/03/29 09:35:31;;;;;;;;;;;;;;;19.70;32.18;102341.66;4941665;28;97145;-83
2021/03/29 09:37:57;;;;;;;;;;;;;;;19.20;33.08;102342.22;4931177;28;96854;-84
2021/03/29 09:40:23;;;;;;;;;;;;;;;19.64;32.14;102342.81;4935173;28;99101;-82
2021/03/29 09:42:53;;;;;;;;;;;;;;;19.54;32.25;102335.28;4936541;28;98157;-83
2021/03/29 09:45:22;;;;;;;;;;;;;;;19.89;31.69;102338.00;4931438;28;97909;-82
2021/03/29 09:47:58;;;;;;;;;;;;;;;20.07;30.95;102324.63;4937761;28;96848;-83
2021/03/29 09:50:29;;;;;;;;;;;;;;;20.85;30.11;102319.66;4935326;28;98788;-82
2021/03/29 09:53:07;;;;;;;;;;;;;;;21.15;29.89;102314.41;4923175;28;98911;-81
2021/03/29 09:55:39;;;;;;;;;;;;;;;21.42;29.23;102314.72;4932578;28;97913;-82
2021/03/29 09:58:05;;;;;;;;;;;;;;;20.54;29.74;102314.16;4934142;28;98366;-81
2021/03/29 10:00:33;;;;;;;;;;;;;;;20.52;30.11;102316.06;4930608;28;98708;-82
2021/03/29 10:03:00;;;;;;;;;;;;;;;20.98;29.52;102319.84;4937311;28;98992;-81
2021/03/29 10:05:33;;;;;;;;;;;;;;;20.50;30.54;102328.69;4943121;28;96895;-83
2021/03/29 10:08:00;;;;;;;;;;;;;;;20.21;30.64;102327.47;4937051;28;97733;-83
2021/03/29 10:10:26;;;;;;;;;;;;;;;20.78;29.93;102320.03;4937566;28;99020;-82
2021/03/29 10:13:04;;;;;;;;;;;;;;;20.74;29.64;102319.34;4938546;28;97791;-82
2021/03/29 10:15:31;;;;;;;;;;;;;;;20.40;29.83;102311.31;4944043;28;97962;-83
2021/03/29 10:18:05;;;;;;;;;;;;;;;19.02;32.11;102305.56;4937717;28;97344;-83
2021/03/29 10:20:34;;;;;;;;;;;;;;;20.39;30.48;102310.47;4932354;28;98453;-83
2021/03/29 10:23:14;;;;;;;;;;;;;;;20.40;30.33;102320.25;4929546;28;97801;-81
2021/03/29 10:25:41;;;;;;;;;;;;;;;20.29;30.14;102309.16;4939428;28;96911;-83
2021/03/29 10:28:20;;;;;;;;;;;;;;;20.79;29.52;102319.09;4933386;28;98681;-82
2021/03/29 10:30:46;;;;;;;;;;;;;;;20.60;29.50;102321.91;4915636;28;98568;-81
2021/03/29 10:33:12;;;;;;;;;;;;;;;19.97;30.39;102324.19;4925699;28;99135;-81
2021/03/29 10:35:39;;;;;;;;;;;;;;;20.24;30.52;102332.69;4929533;28;96857;-80
2021/03/29 10:38:05;;;;;;;;;;;;;;;19.63;31.15;102329.47;4926247;28;98774;-82
2021/03/29 10:40:33;;;;;;;;;;;;;;;19.63;31.06;102322.28;4930140;28;97882;-80
2021/03/29 10:43:00;;;;;;;;;;;;;;;20.17;30.54;102325.88;4935621;28;100847;-79
2021/03/29 10:45:29;;;;;;;;;;;;;;;19.99;31.02;102322.31;4928092;28;108597;-82
2021/03/29 10:47:55;;;;;;;;;;;;;;;19.80;31.62;102322.38;4929793;28;96864;-81
2021/03/29 10:50:22;;;;;;;;;;;;;;;19.70;32.30;102325.56;4939366;28;97990;-82
2021/03/29 10:52:48;;;;;;;;;;;;;;;19.64;32.58;102320.50;4934202;28;98885;-83
2021/03/29 10:55:15;;;;;;;;;;;;;;;20.17;31.63;102321.38;4945890;28;96835;-82
2021/03/29 10:57:41;;;;;;;;;;;;;;;20.66;31.44;102322.44;4938296;28;97290;-82
2021/03/29 11:00:09;;;;;;;;;;;;;;;20.74;31.59;102324.72;4933460;28;99338;-82
2021/03/29 11:02:36;;;;;;;;;;;;;;;20.49;31.77;102321.56;4933209;28;100486;-81
2021/03/29 11:05:02;;;;;;;;;;;;;;;20.69;30.48;102319.59;4941332;28;96895;-84
2021/03/29 11:07:29;;;;;;;;;;;;;;;20.58;31.56;102319.28;4939767;28;96933;-84
2021/03/29 11:10:03;;;;;;;;;;;;;;;20.93;30.11;102322.78;4941196;28;99332;-82
2021/03/29 11:12:29;;;;;;;;;;;;;;;21.25;29.91;102315.69;4925505;28;97971;-79
2021/03/29 11:14:55;;;;;;;;;;;;;;;21.24;30.03;102318.44;4932584;28;96836;-80
2021/03/29 11:17:26;;;;;;;;;;;;;;;20.26;30.99;102326.28;4942132;28;96806;-78
2021/03/29 11:19:53;;;;;;;;;;;;;;;20.05;30.95;102321.13;4940092;28;99577;-80
2021/03/29 11:22:19;;;;;;;;;;;;;;;19.94;31.01;102319.00;4940612;28;99273;-80
2021/03/29 11:24:45;;;;;;;;;;;;;;;19.96;30.99;102332.31;4942050;28;96871;-81
2021/03/29 11:27:13;;;;;;;;;;;;;;;20.05;30.94;102326.50;4941669;28;96863;-81
2021/03/29 11:29:39;;;;;;;;;;;;;;;19.89;31.37;102329.06;4948054;28;98179;-82
2021/03/29 11:32:05;;;;;;;;;;;;;;;19.76;31.58;102334.16;4943726;28;98577;-80
2021/03/29 11:34:32;;;;;;;;;;;;;;;20.05;30.86;102321.13;4949233;28;96765;-81
2021/03/29 11:36:59;;;;;;;;;;;;;;;19.94;30.76;102321.69;4943607;28;98967;-81
2021/03/29 11:39:25;;;;;;;;;;;;;;;20.09;30.59;102312.84;4940136;28;99001;-82
2021/03/29 11:41:51;;;;;;;;;;;;;;;20.58;29.77;102310.34;4946238;28;100826;-81
2021/03/29 11:44:17;;;;;;;;;;;;;;;20.72;29.34;102318.56;4947923;28;96870;-81
2021/03/29 11:46:43;;;;;;;;;;;;;;;21.28;28.60;102322.69;4939992;28;96816;-80
2021/03/29 11:49:11;;;;;;;;;;;;;;;21.28;28.22;102318.19;4939349;28;97988;-80
2021/03/29 11:51:42;;;;;;;;;;;;;;;21.85;27.40;102318.53;4937806;28;99579;-79
2021/03/29 11:54:08;;;;;;;;;;;;;;;21.89;27.61;102312.00;4945435;28;96665;-81
2021/03/29 11:56:34;;;;;;;;;;;;;;;21.44;27.92;102312.84;4933057;28;96947;-83
2021/03/29 11:59:01;;;;;;;;;;;;;;;21.71;27.75;102310.41;4944459;28;98135;-82
2021/03/29 12:01:37;;;;;;;;;;;;;;;21.71;27.67;102300.50;4933637;28;99816;-81
2021/03/29 12:04:06;;;;;;;;;;;;;;;21.62;27.78;102306.41;4936958;28;96747;-80
2021/03/29 12:06:40;;;;;;;;;;;;;;;21.78;27.60;102303.72;4921679;28;97228;-83
2021/03/29 12:09:16;;;;;;;;;;;;;;;22.24;26.97;102304.59;4926479;28;98986;-82
2021/03/29 12:14:29;;;;;;;;;;;;;;;23.24;25.94;102298.31;4932429;28;97407;-81
2021/03/29 12:16:56;;;;;;;;;;;;;;;22.82;26.07;102288.47;4925282;28;98554;-83
2021/03/29 12:19:22;;;;;;;;;;;;;;;22.61;26.39;102298.69;4933740;28;99145;-82
2021/03/29 12:21:50;;;;;;;;;;;;;;;21.92;27.49;102300.22;4925326;28;97785;-81
2021/03/29 12:24:18;;;;;;;;;;;;;;;21.83;27.86;102302.47;4932814;28;96859;-82
2021/03/29 12:26:46;;;;;;;;;;;;;;;21.61;28.21;102303.78;4926516;28;97197;-83
2021/03/29 12:29:14;;;;;;;;;;;;;;;21.43;28.44;102300.34;4935150;28;99189;-83
2021/03/29 12:31:41;;;;;;;;;;;;;;;21.28;28.66;102310.13;4929252;28;99325;-82
2021/03/29 12:34:07;;;;;;;;;;;;;;;20.56;29.90;102290.75;4936068;28;97102;-81
2021/03/29 12:36:34;;;;;;;;;;;;;;;20.66;29.86;102302.78;4939625;28;96684;-82
2021/03/29 12:39:05;;;;;;;;;;;;;;;21.50;28.81;102306.22;4929103;28;99329;-82
2021/03/29 12:41:41;;;;;;;;;;;;;;;21.78;28.36;102292.94;4940793;28;99082;-82